Time;durP1;ratioP1;P1;durP2;ratioP2;P2;SDS_P1;SDS_P2;PMS_P1;PMS_P2;Temp;Humidity;BMP_temperature;BMP_pressure;BME280_temperature;BME280_humidity;BME280_pressure;Samples;Min_cycle;Max_cycle;Signal;HPM_P1;HPM_P2
2022/03/31 00:00:50;;;;;;;16.65;14.88;;;21.80;68.40;;;;;;6102435;28;87244;-68
2022/03/31 00:03:52;;;;;;;16.60;14.90;;;21.80;68.30;;;;;;6096828;28;88474;-69
2022/03/31 00:06:56;;;;;;;17.35;15.50;;;21.80;68.40;;;;;;6100803;28;89046;-68
2022/03/31 00:09:58;;;;;;;17.58;15.77;;;21.80;68.40;;;;;;6101497;28;89193;-69
2022/03/31 00:13:01;;;;;;;19.48;16.17;;;21.70;68.40;;;;;;6107364;28;88952;-69
2022/03/31 00:16:03;;;;;;;17.30;15.50;;;21.70;68.40;;;;;;6110309;28;89079;-68
2022/03/31 00:19:05;;;;;;;17.90;16.00;;;21.70;68.40;;;;;;6110135;28;89080;-69
2022/03/31 00:22:08;;;;;;;17.65;15.57;;;21.70;68.40;;;;;;6108759;28;89139;-69
2022/03/31 00:25:12;;;;;;;18.05;15.63;;;21.70;68.40;;;;;;6098936;28;88188;-69
2022/03/31 00:28:14;;;;;;;18.92;16.92;;;21.70;68.40;;;;;;6109864;28;89327;-69
2022/03/31 00:31:16;;;;;;;17.80;16.00;;;21.70;68.40;;;;;;6112879;28;89064;-69
2022/03/31 00:34:17;;;;;;;18.85;16.92;;;21.70;68.40;;;;;;6109170;28;87573;-69
2022/03/31 00:37:21;;;;;;;18.77;16.77;;;21.70;68.40;;;;;;6109665;28;88013;-69
2022/03/31 00:40:24;;;;;;;18.45;16.65;;;21.70;68.40;;;;;;6107331;28;89412;-69
2022/03/31 00:43:26;;;;;;;18.40;16.42;;;21.70;68.40;;;;;;6108212;28;90265;-68
2022/03/31 00:46:28;;;;;;;19.65;17.67;;;21.70;68.40;;;;;;6110258;28;87778;-69
2022/03/31 00:49:48;;;;;;;18.85;16.95;;;21.70;68.40;;;;;;6110538;28;89296;-69
2022/03/31 00:52:52;;;;;;;18.90;17.08;;;21.70;68.30;;;;;;6098493;28;89408;-69
2022/03/31 00:55:54;;;;;;;18.42;16.52;;;21.70;68.30;;;;;;6110842;28;89133;-69
2022/03/31 00:58:56;;;;;;;19.20;17.30;;;21.70;68.30;;;;;;6100910;28;89104;-69
2022/03/31 01:01:59;;;;;;;18.98;16.77;;;21.70;68.20;;;;;;6103766;28;88163;-69
2022/03/31 01:05:02;;;;;;;19.48;17.45;;;21.70;68.20;;;;;;6098530;28;87249;-69
2022/03/31 01:08:06;;;;;;;19.98;17.85;;;21.70;68.20;;;;;;6110141;28;89166;-69
2022/03/31 01:11:08;;;;;;;19.13;17.25;;;21.70;68.20;;;;;;6107522;28;89218;-69
2022/03/31 01:14:10;;;;;;;19.23;17.20;;;21.70;68.20;;;;;;6108665;28;90436;-69
2022/03/31 01:17:12;;;;;;;20.20;18.08;;;21.70;68.30;;;;;;6107206;28;89054;-69
2022/03/31 01:20:19;;;;;;;19.90;17.83;;;21.70;68.20;;;;;;6110718;28;89218;-69
2022/03/31 01:23:22;;;;;;;20.33;18.33;;;21.70;68.30;;;;;;6104575;28;89825;-69
2022/03/31 01:26:24;;;;;;;19.10;17.25;;;21.70;68.30;;;;;;6106920;28;88922;-69
2022/03/31 01:29:27;;;;;;;19.20;17.17;;;21.70;68.30;;;;;;6108491;28;89105;-69
2022/03/31 01:32:29;;;;;;;19.02;17.13;;;21.70;68.40;;;;;;6097971;28;87549;-69
2022/03/31 01:35:30;;;;;;;19.88;17.80;;;21.70;68.30;;;;;;6110412;28;88361;-68
2022/03/31 01:38:34;;;;;;;19.17;17.17;;;21.60;68.30;;;;;;6109087;28;89108;-69
2022/03/31 01:41:36;;;;;;;19.60;17.60;;;21.70;68.30;;;;;;6110047;28;88752;-69
2022/03/31 01:44:38;;;;;;;19.60;17.60;;;21.70;69.30;;;;;;6095670;28;89804;-69
2022/03/31 01:47:40;;;;;;;19.65;17.65;;;21.70;68.40;;;;;;6107509;28;89088;-70
2022/03/31 01:50:42;;;;;;;19.02;17.13;;;21.60;68.40;;;;;;6109177;28;89498;-70
2022/03/31 01:53:46;;;;;;;19.30;17.20;;;21.60;68.30;;;;;;6111205;28;89241;-69
2022/03/31 01:56:48;;;;;;;18.60;16.80;;;21.60;68.30;;;;;;6109320;28;89223;-70
2022/03/31 01:59:51;;;;;;;19.42;17.40;;;21.70;68.30;;;;;;6110163;28;89168;-69
2022/03/31 02:02:53;;;;;;;19.02;17.08;;;21.60;68.10;;;;;;6109526;28;89114;-70
2022/03/31 02:05:55;;;;;;;18.95;16.95;;;21.70;68.20;;;;;;6097465;28;88461;-70
2022/03/31 02:08:58;;;;;;;17.77;15.95;;;21.60;68.10;;;;;;6101707;28;89141;-70
2022/03/31 02:12:01;;;;;;;19.08;17.08;;;21.70;68.10;;;;;;6108218;28;89085;-70
2022/03/31 02:15:04;;;;;;;19.88;16.90;;;21.60;68.10;;;;;;6100857;28;90281;-69
2022/03/31 02:18:06;;;;;;;18.85;16.98;;;21.70;68.10;;;;;;6108026;28;89495;-70
2022/03/31 02:21:08;;;;;;;18.60;16.75;;;21.60;68.10;;;;;;6107517;28;89035;-70
2022/03/31 02:24:12;;;;;;;18.55;16.65;;;21.60;68.20;;;;;;6108752;28;89220;-69
2022/03/31 02:27:14;;;;;;;18.83;16.98;;;21.60;68.10;;;;;;6108876;28;89084;-70
2022/03/31 02:30:16;;;;;;;18.73;16.83;;;21.60;68.20;;;;;;6108172;28;89362;-70
2022/03/31 02:33:18;;;;;;;17.73;16.02;;;21.60;68.20;;;;;;6107656;28;87998;-70
2022/03/31 02:36:20;;;;;;;18.33;16.42;;;21.60;68.20;;;;;;6109609;28;88474;-70
2022/03/31 02:39:24;;;;;;;18.25;16.35;;;21.60;68.30;;;;;;6107355;28;88950;-70
2022/03/31 02:42:25;;;;;;;18.35;16.45;;;21.50;68.10;;;;;;6110450;28;89027;-69
2022/03/31 02:45:28;;;;;;;17.65;15.77;;;21.60;68.20;;;;;;6106488;28;90090;-70
2022/03/31 02:48:30;;;;;;;17.98;16.15;;;21.60;68.30;;;;;;6096254;28;88136;-69
2022/03/31 02:51:32;;;;;;;17.92;16.13;;;21.60;68.30;;;;;;6107049;28;89086;-70
2022/03/31 02:57:56;;;;;;;17.63;15.55;;;21.60;68.30;;;;;;6108990;28;87329;-70
2022/03/31 03:00:58;;;;;;;16.15;14.45;;;21.60;68.30;;;;;;6108122;28;89044;-70
2022/03/31 03:04:01;;;;;;;17.58;15.85;;;21.50;68.20;;;;;;6108310;28;87767;-70
2022/03/31 03:07:03;;;;;;;18.17;16.38;;;21.60;68.20;;;;;;6084097;28;88547;-70
2022/03/31 03:10:07;;;;;;;17.70;15.90;;;21.60;68.20;;;;;;6108084;28;89065;-70
2022/03/31 03:13:09;;;;;;;16.42;14.73;;;21.60;68.10;;;;;;6107581;28;89226;-70
2022/03/31 03:16:12;;;;;;;16.83;15.02;;;21.60;68.10;;;;;;6109169;28;90106;-70
2022/03/31 03:19:14;;;;;;;16.55;14.85;;;21.60;68.00;;;;;;6108286;28;89320;-70
2022/03/31 03:22:16;;;;;;;16.33;14.73;;;21.60;68.10;;;;;;6108237;28;89213;-70
2022/03/31 03:25:22;;;;;;;16.23;14.63;;;21.60;68.00;;;;;;6108356;28;89226;-70
2022/03/31 03:28:24;;;;;;;16.63;14.93;;;21.60;68.00;;;;;;6108734;28;87919;-69
2022/03/31 03:31:27;;;;;;;15.02;13.52;;;21.60;68.10;;;;;;6108747;28;89049;-70
2022/03/31 03:34:29;;;;;;;16.35;14.75;;;21.60;68.10;;;;;;6106935;28;89038;-69
2022/03/31 03:37:32;;;;;;;16.13;14.43;;;21.60;68.10;;;;;;6104687;28;88587;-69
2022/03/31 03:40:35;;;;;;;14.65;13.25;;;21.60;68.20;;;;;;6104991;28;89097;-70
2022/03/31 03:43:37;;;;;;;15.35;13.25;;;21.60;68.30;;;;;;6112836;28;87992;-70
2022/03/31 03:46:58;;;;;;;15.18;13.68;;;21.60;68.30;;;;;;6112092;28;88885;-69
2022/03/31 03:50:00;;;;;;;14.70;13.20;;;21.60;68.30;;;;;;6110270;28;89150;-69
2022/03/31 03:53:03;;;;;;;15.45;13.95;;;21.60;68.30;;;;;;6100611;28;88257;-70
2022/03/31 03:56:07;;;;;;;15.00;13.40;;;21.60;68.30;;;;;;6101454;28;89117;-70
2022/03/31 03:59:09;;;;;;;14.40;12.90;;;21.60;68.30;;;;;;6111429;28;89122;-70
2022/03/31 04:02:11;;;;;;;14.52;13.02;;;21.60;68.30;;;;;;6111527;28;89441;-69
2022/03/31 04:05:13;;;;;;;14.27;12.88;;;21.60;68.40;;;;;;6110667;28;88860;-70
2022/03/31 04:08:15;;;;;;;14.75;12.95;;;21.50;68.30;;;;;;6111368;28;87233;-70
2022/03/31 04:11:19;;;;;;;14.50;12.88;;;21.50;69.20;;;;;;6112658;28;87640;-69
2022/03/31 04:14:21;;;;;;;13.73;12.30;;;21.50;68.30;;;;;;6102043;28;89578;-70
2022/03/31 04:17:23;;;;;;;13.85;12.45;;;21.50;68.20;;;;;;6112398;28;89936;-69
2022/03/31 04:20:26;;;;;;;13.50;12.10;;;21.60;68.30;;;;;;6112053;28;89115;-70
2022/03/31 04:23:28;;;;;;;13.80;12.50;;;21.60;68.20;;;;;;6112373;28;89378;-70
2022/03/31 04:26:31;;;;;;;14.13;12.65;;;21.60;68.20;;;;;;6112290;28;89326;-70
2022/03/31 04:29:33;;;;;;;12.85;11.55;;;21.60;68.20;;;;;;6110076;28;89364;-69
2022/03/31 04:32:35;;;;;;;14.90;12.43;;;21.60;68.20;;;;;;6109727;28;89092;-70
2022/03/31 04:35:37;;;;;;;13.52;12.23;;;21.60;68.10;;;;;;6111653;28;89015;-70
2022/03/31 04:38:39;;;;;;;12.82;11.63;;;21.60;68.20;;;;;;6111347;28;88636;-70
2022/03/31 04:41:44;;;;;;;12.63;11.32;;;21.60;68.30;;;;;;6099364;28;88044;-69
2022/03/31 04:44:46;;;;;;;12.88;11.57;;;21.60;68.30;;;;;;6110141;28;89086;-70
2022/03/31 04:47:48;;;;;;;12.30;11.10;;;21.50;68.30;;;;;;6111898;28;88996;-70
2022/03/31 04:50:50;;;;;;;13.27;11.98;;;21.60;68.40;;;;;;6111072;28;89089;-70
2022/03/31 04:53:52;;;;;;;12.85;11.13;;;21.60;68.30;;;;;;6097006;28;89020;-70
2022/03/31 04:56:55;;;;;;;11.60;10.50;;;21.50;68.30;;;;;;6112342;28;89289;-70
2022/03/31 04:59:57;;;;;;;12.88;11.38;;;21.60;68.40;;;;;;6105960;28;89153;-70
2022/03/31 05:02:59;;;;;;;11.63;10.48;;;21.50;68.30;;;;;;6088173;28;89056;-70
2022/03/31 05:06:01;;;;;;;12.07;10.82;;;21.50;68.40;;;;;;6089099;28;88981;-70
2022/03/31 05:09:04;;;;;;;11.50;10.40;;;21.50;68.40;;;;;;6111941;28;88421;-70
2022/03/31 05:12:09;;;;;;;12.07;10.75;;;21.50;68.40;;;;;;6108519;28;89058;-69
2022/03/31 05:15:11;;;;;;;12.45;11.13;;;21.50;68.40;;;;;;6099416;28;89220;-71
2022/03/31 05:18:13;;;;;;;11.75;10.55;;;21.60;69.30;;;;;;6096948;28;90044;-71
2022/03/31 05:21:16;;;;;;;11.13;10.00;;;21.50;69.10;;;;;;6109505;28;89140;-70
2022/03/31 05:24:18;;;;;;;11.32;10.20;;;21.50;68.90;;;;;;6103259;28;89038;-72
2022/03/31 05:27:21;;;;;;;11.30;10.18;;;21.60;69.10;;;;;;6105899;28;89072;-70
2022/03/31 05:30:23;;;;;;;10.90;9.70;;;21.60;69.20;;;;;;6110309;28;88244;-71
2022/03/31 05:33:25;;;;;;;10.90;9.80;;;21.60;69.10;;;;;;6110274;28;89168;-72
2022/03/31 05:36:27;;;;;;;11.90;9.90;;;21.60;69.10;;;;;;6086418;28;88002;-70
2022/03/31 05:39:29;;;;;;;10.55;9.52;;;21.60;69.00;;;;;;6099002;28;89966;-70
2022/03/31 05:42:33;;;;;;;10.15;9.05;;;21.70;69.30;;;;;;6109913;28;89077;-70
2022/03/31 05:45:36;;;;;;;10.90;9.80;;;21.70;69.20;;;;;;6109250;28;89135;-71
2022/03/31 05:48:38;;;;;;;11.23;9.70;;;21.60;69.00;;;;;;6095054;28;90065;-71
2022/03/31 05:51:40;;;;;;;11.18;9.90;;;21.70;69.10;;;;;;6100860;28;88745;-71
2022/03/31 05:54:42;;;;;;;10.00;9.00;;;21.60;68.90;;;;;;6109782;28;89291;-71
2022/03/31 05:57:45;;;;;;;10.45;9.35;;;21.70;68.90;;;;;;6102590;28;89167;-71
2022/03/31 06:00:47;;;;;;;9.60;8.70;;;21.60;68.90;;;;;;6109142;28;87974;-71
2022/03/31 06:03:49;;;;;;;9.82;8.82;;;21.70;68.90;;;;;;6111936;28;89065;-71
2022/03/31 06:06:51;;;;;;;10.82;9.35;;;21.60;68.80;;;;;;6099320;28;89042;-71
2022/03/31 06:09:53;;;;;;;10.50;8.90;;;21.60;68.70;;;;;;6111385;28;88304;-71
2022/03/31 06:12:57;;;;;;;9.73;8.73;;;21.60;68.80;;;;;;6108702;28;88792;-71
2022/03/31 06:15:59;;;;;;;10.35;9.25;;;21.60;68.80;;;;;;6110532;28;87664;-70
2022/03/31 06:19:01;;;;;;;10.05;9.15;;;21.70;68.80;;;;;;6101344;28;88835;-71
2022/03/31 06:22:04;;;;;;;9.50;8.57;;;21.60;68.80;;;;;;6100919;28;89085;-71
2022/03/31 06:25:10;;;;;;;9.23;8.30;;;21.60;68.70;;;;;;6111090;28;89021;-71
2022/03/31 06:28:14;;;;;;;9.48;8.50;;;21.70;68.80;;;;;;6107641;28;89665;-70
2022/03/31 06:31:17;;;;;;;9.50;8.40;;;21.60;68.70;;;;;;6106018;28;89143;-71
2022/03/31 06:34:19;;;;;;;8.98;8.07;;;21.60;68.70;;;;;;6110711;28;89115;-70
2022/03/31 06:37:21;;;;;;;9.48;8.45;;;21.70;68.80;;;;;;6095581;28;89451;-71
2022/03/31 06:40:23;;;;;;;9.43;8.43;;;21.60;69.60;;;;;;6101064;28;88373;-71
2022/03/31 06:43:26;;;;;;;9.85;8.35;;;21.70;68.70;;;;;;6108274;28;90584;-70
2022/03/31 06:46:28;;;;;;;9.50;7.97;;;21.70;68.80;;;;;;6099139;28;88938;-71
2022/03/31 06:49:30;;;;;;;9.00;8.00;;;21.60;68.70;;;;;;6109894;28;89992;-71
2022/03/31 06:52:32;;;;;;;9.05;7.95;;;21.70;68.70;;;;;;6108916;28;88907;-71
2022/03/31 06:55:34;;;;;;;11.00;8.20;;;21.70;68.70;;;;;;6100357;28;89081;-70
2022/03/31 06:58:38;;;;;;;8.75;7.85;;;21.70;68.70;;;;;;6097352;28;87993;-71
2022/03/31 07:01:40;;;;;;;8.65;7.75;;;21.70;68.70;;;;;;6105096;28;88106;-70
2022/03/31 07:04:42;;;;;;;9.82;8.82;;;21.70;68.70;;;;;;6108536;28;89113;-71
2022/03/31 07:07:44;;;;;;;8.45;7.50;;;21.70;68.70;;;;;;6108551;28;89037;-72
2022/03/31 07:10:47;;;;;;;8.32;7.53;;;21.70;68.80;;;;;;6103847;28;87186;-71
2022/03/31 07:13:50;;;;;;;8.73;7.82;;;21.70;68.80;;;;;;6099310;28;89102;-70
2022/03/31 07:16:52;;;;;;;8.60;7.50;;;21.70;68.80;;;;;;6105463;28;89029;-70
2022/03/31 07:19:54;;;;;;;8.00;7.10;;;21.70;68.80;;;;;;6100739;28;89198;-72
2022/03/31 07:22:57;;;;;;;8.13;7.30;;;21.70;68.80;;;;;;6104965;28;89466;-72
2022/03/31 07:25:59;;;;;;;8.48;7.68;;;21.70;68.80;;;;;;6109484;28;88041;-71
2022/03/31 07:29:03;;;;;;;8.10;7.20;;;21.70;68.80;;;;;;6110021;28;89112;-68
2022/03/31 07:32:05;;;;;;;9.18;7.20;;;21.70;68.80;;;;;;6096631;28;89455;-70
2022/03/31 07:35:08;;;;;;;8.27;7.43;;;21.70;68.80;;;;;;6098036;28;89117;-70
2022/03/31 07:38:10;;;;;;;7.88;7.15;;;21.70;68.80;;;;;;6090241;28;89096;-70
2022/03/31 07:41:13;;;;;;;7.93;6.95;;;21.70;68.80;;;;;;6097107;28;88478;-70
2022/03/31 07:44:16;;;;;;;8.60;6.90;;;21.70;68.80;;;;;;6097242;28;89073;-70
2022/03/31 07:47:18;;;;;;;8.68;7.03;;;21.70;68.80;;;;;;6085745;28;89095;-70
2022/03/31 07:50:21;;;;;;;8.98;6.80;;;21.70;68.80;;;;;;6088645;28;90046;-70
2022/03/31 07:53:24;;;;;;;9.30;7.03;;;21.70;68.80;;;;;;6105651;28;88366;-70
2022/03/31 07:56:26;;;;;;;7.57;6.82;;;21.70;68.90;;;;;;6100646;28;89267;-70
2022/03/31 07:59:33;;;;;;;8.63;7.25;;;21.70;68.90;;;;;;6088477;28;88080;-71
2022/03/31 08:02:35;;;;;;;7.70;6.90;;;21.70;68.80;;;;;;6091429;28;87958;-69
2022/03/31 08:05:39;;;;;;;7.50;6.72;;;21.70;68.80;;;;;;6101524;28;89095;-70
2022/03/31 08:08:41;;;;;;;7.93;6.90;;;21.80;68.90;;;;;;6107732;28;88729;-70
2022/03/31 08:11:43;;;;;;;8.45;6.40;;;21.70;68.80;;;;;;6109114;28;88377;-70
2022/03/31 08:14:46;;;;;;;8.35;6.80;;;21.70;68.80;;;;;;6095336;28;89094;-70
2022/03/31 08:17:49;;;;;;;8.07;6.88;;;21.70;68.80;;;;;;6108388;28;87813;-70
2022/03/31 08:20:51;;;;;;;7.70;6.90;;;21.70;68.80;;;;;;6098214;28;90158;-71
2022/03/31 08:23:53;;;;;;;8.02;6.90;;;21.70;68.80;;;;;;6103859;28;89527;-70
2022/03/31 08:26:55;;;;;;;7.05;6.35;;;21.70;68.80;;;;;;6106504;28;89043;-70
2022/03/31 08:30:00;;;;;;;7.65;6.82;;;21.70;68.80;;;;;;6107169;28;87913;-69
2022/03/31 08:33:02;;;;;;;7.50;6.70;;;21.70;68.80;;;;;;6112271;28;89424;-70
2022/03/31 08:36:05;;;;;;;7.53;6.60;;;21.70;68.80;;;;;;6111856;28;89125;-70
2022/03/31 08:39:07;;;;;;;7.55;6.40;;;21.70;68.80;;;;;;6103223;28;89084;-70
2022/03/31 08:42:10;;;;;;;7.00;6.20;;;21.70;68.90;;;;;;6096744;28;88300;-70
2022/03/31 08:45:15;;;;;;;6.65;5.97;;;21.70;68.80;;;;;;6098192;28;89133;-70
2022/03/31 08:48:17;;;;;;;6.85;6.15;;;21.70;68.90;;;;;;6110940;28;89137;-70
2022/03/31 08:51:19;;;;;;;7.03;5.95;;;21.70;68.90;;;;;;6109518;28;90069;-70
2022/03/31 08:54:22;;;;;;;6.85;6.03;;;21.70;69.00;;;;;;6110341;28;89003;-70
2022/03/31 08:57:25;;;;;;;6.90;5.82;;;21.70;69.00;;;;;;6112841;28;89090;-70
2022/03/31 09:00:29;;;;;;;6.72;6.10;;;21.70;69.00;;;;;;6106715;28;89532;-71
2022/03/31 09:03:35;;;;;;;7.50;6.03;;;21.70;69.00;;;;;;6104315;28;89544;-70
2022/03/31 09:06:37;;;;;;;7.95;5.72;;;21.70;69.00;;;;;;6098384;28;89400;-70
2022/03/31 09:09:45;;;;;;;8.23;6.13;;;21.70;69.00;;;;;;6100878;28;89115;-68
2022/03/31 09:12:47;;;;;;;6.20;5.53;;;21.70;69.00;;;;;;6101370;28;88337;-70
2022/03/31 09:15:52;;;;;;;6.55;5.90;;;21.70;68.90;;;;;;6097602;28;89043;-69
2022/03/31 09:19:00;;;;;;;6.82;5.80;;;21.70;69.00;;;;;;6111185;28;89040;-70
2022/03/31 09:22:03;;;;;;;6.10;5.47;;;21.70;68.90;;;;;;6100271;28;90070;-70
2022/03/31 09:25:08;;;;;;;6.65;5.95;;;21.70;68.80;;;;;;6109478;28;89174;-70
2022/03/31 09:28:15;;;;;;;6.88;5.55;;;21.70;68.80;;;;;;6109793;28;87947;-70
2022/03/31 09:31:24;;;;;;;8.38;6.22;;;21.70;68.80;;;;;;6103899;28;88998;-70
2022/03/31 09:34:27;;;;;;;6.20;5.60;;;21.80;68.90;;;;;;6106618;28;89093;-70
2022/03/31 09:37:31;;;;;;;6.35;5.70;;;21.70;68.80;;;;;;6104213;28;89181;-71
2022/03/31 09:40:37;;;;;;;7.78;5.63;;;21.80;68.80;;;;;;6096760;28;89003;-71
2022/03/31 09:43:40;;;;;;;6.10;5.50;;;21.70;69.40;;;;;;6094745;28;87739;-71
2022/03/31 09:46:44;;;;;;;7.22;5.82;;;21.70;70.30;;;;;;6107039;28;89462;-71
2022/03/31 09:49:52;;;;;;;6.72;5.75;;;21.70;69.30;;;;;;6103306;28;89437;-70
2022/03/31 09:52:55;;;;;;;7.45;5.90;;;21.70;69.30;;;;;;6109545;28;90001;-71
2022/03/31 09:55:58;;;;;;;6.28;5.68;;;21.70;69.40;;;;;;6104265;28;89409;-70
2022/03/31 09:59:03;;;;;;;6.07;5.47;;;21.70;69.50;;;;;;6100066;28;89028;-71
2022/03/31 10:02:08;;;;;;;6.07;5.40;;;21.70;69.50;;;;;;6109648;28;87929;-71
2022/03/31 10:05:11;;;;;;;6.38;5.68;;;21.70;69.70;;;;;;6110428;28;89457;-71
2022/03/31 10:08:13;;;;;;;6.60;5.13;;;21.70;69.80;;;;;;6087648;28;87980;-70
2022/03/31 10:11:19;;;;;;;6.55;5.45;;;21.80;69.80;;;;;;6095660;28;88002;-70
2022/03/31 10:14:31;;;;;;;6.10;5.50;;;21.70;70.00;;;;;;6108906;28;88342;-71
2022/03/31 10:17:34;;;;;;;5.70;5.10;;;21.80;70.00;;;;;;6105743;28;89136;-67
2022/03/31 10:20:36;;;;;;;7.32;5.47;;;21.80;70.10;;;;;;6108158;28;89399;-70
2022/03/31 10:27:10;;;;;;;317.20;225.65;;;21.80;72.00;;;;;;6099066;28;87349;-70
2022/03/31 10:30:14;;;;;;;59.00;43.15;;;21.90;77.90;;;;;;6098317;28;89361;-69
2022/03/31 10:33:29;;;;;;;39.53;30.15;;;22.00;74.10;;;;;;6094300;28;88841;-69
2022/03/31 10:36:40;;;;;;;36.45;26.40;;;22.10;75.20;;;;;;6107106;28;89139;-68
2022/03/31 10:39:56;;;;;;;32.08;23.98;;;22.20;74.90;;;;;;6108447;28;89037;-69
2022/03/31 10:42:58;;;;;;;28.92;20.42;;;22.30;74.40;;;;;;6095208;28;89466;-68
2022/03/31 10:46:04;;;;;;;31.35;20.65;;;22.40;74.80;;;;;;6097144;28;88349;-68
2022/03/31 10:49:12;;;;;;;27.95;18.45;;;22.40;74.20;;;;;;6082555;28;89716;-69
2022/03/31 10:52:19;;;;;;;22.85;16.55;;;22.30;74.00;;;;;;6096116;28;89137;-68
2022/03/31 10:55:21;;;;;;;21.98;15.55;;;22.40;72.90;;;;;;6107675;28;89888;-69
2022/03/31 10:58:26;;;;;;;19.38;15.20;;;22.30;72.50;;;;;;6095956;28;89297;-69
2022/03/31 11:01:30;;;;;;;20.58;14.77;;;22.30;72.30;;;;;;6085837;28;89094;-69
2022/03/31 11:04:43;;;;;;;20.35;14.50;;;22.30;72.20;;;;;;6095547;28;89128;-68
2022/03/31 11:07:45;;;;;;;18.98;13.48;;;22.20;71.90;;;;;;6107975;28;89017;-68
2022/03/31 11:10:51;;;;;;;16.88;13.25;;;22.20;71.80;;;;;;6106793;28;88046;-70
2022/03/31 11:13:55;;;;;;;17.55;13.02;;;22.20;71.60;;;;;;6106431;28;89124;-69
2022/03/31 11:16:57;;;;;;;16.80;13.40;;;22.20;71.50;;;;;;6096811;28;88367;-68
2022/03/31 11:20:03;;;;;;;15.80;12.00;;;22.20;71.50;;;;;;6095837;28;89041;-69
2022/03/31 11:23:07;;;;;;;15.43;11.80;;;22.20;71.40;;;;;;6098696;28;88096;-69
2022/03/31 11:26:09;;;;;;;15.80;11.77;;;22.20;71.30;;;;;;6096326;28;90303;-69
2022/03/31 11:29:12;;;;;;;14.13;11.23;;;22.20;71.30;;;;;;6107860;28;89402;-69
2022/03/31 11:32:15;;;;;;;15.18;11.30;;;22.20;71.30;;;;;;6096558;28;89137;-69
2022/03/31 11:35:20;;;;;;;14.95;11.00;;;22.20;71.30;;;;;;6106020;28;89523;-68
2022/03/31 11:38:22;;;;;;;12.90;10.93;;;22.20;71.30;;;;;;6090575;28;87884;-69
2022/03/31 11:41:24;;;;;;;14.43;11.25;;;22.20;71.50;;;;;;6089683;28;87928;-68
2022/03/31 11:44:26;;;;;;;13.88;10.40;;;22.20;71.50;;;;;;6094508;28;89055;-69
2022/03/31 11:47:30;;;;;;;12.95;10.30;;;22.20;71.60;;;;;;6086017;28;88215;-69
2022/03/31 11:50:37;;;;;;;12.88;9.80;;;22.20;71.80;;;;;;6094173;28;89119;-69
2022/03/31 11:53:41;;;;;;;12.88;9.65;;;22.20;71.80;;;;;;6087737;28;89043;-69
2022/03/31 11:56:44;;;;;;;12.52;9.70;;;22.20;72.10;;;;;;6086718;28;90012;-69
2022/03/31 11:59:46;;;;;;;13.40;9.52;;;22.20;72.20;;;;;;6095419;28;88722;-68
2022/03/31 12:03:02;;;;;;;13.10;9.48;;;22.20;72.40;;;;;;6092447;28;89252;-68
2022/03/31 12:06:07;;;;;;;12.02;9.50;;;22.20;72.50;;;;;;6092161;28;89088;-69
2022/03/31 12:09:09;;;;;;;15.13;9.55;;;22.10;72.50;;;;;;6089390;28;89152;-68
2022/03/31 12:12:13;;;;;;;12.55;9.20;;;22.10;72.70;;;;;;6093822;28;89811;-68
2022/03/31 12:15:20;;;;;;;12.73;9.35;;;22.10;72.70;;;;;;6092814;28;89263;-67
2022/03/31 12:18:22;;;;;;;12.25;9.13;;;22.10;72.80;;;;;;6101011;28;88419;-68
2022/03/31 12:21:27;;;;;;;11.45;8.80;;;22.10;73.00;;;;;;6093563;28;89081;-67
2022/03/31 12:24:29;;;;;;;10.43;8.55;;;22.10;73.00;;;;;;6108928;28;88032;-68
2022/03/31 12:27:31;;;;;;;14.63;8.73;;;22.10;73.20;;;;;;6105805;28;90128;-68
2022/03/31 12:30:41;;;;;;;11.48;8.15;;;22.10;74.90;;;;;;6107231;28;89109;-68
2022/03/31 12:33:48;;;;;;;12.30;8.57;;;22.20;75.70;;;;;;6110467;28;89209;-68
2022/03/31 12:36:52;;;;;;;12.15;8.75;;;22.20;75.80;;;;;;6100141;28;89194;-68
2022/03/31 12:39:54;;;;;;;12.70;8.43;;;22.20;75.10;;;;;;6110576;28;89080;-68
2022/03/31 12:42:57;;;;;;;10.88;8.32;;;22.20;75.20;;;;;;6099530;28;89090;-68
2022/03/31 12:46:12;;;;;;;13.82;8.40;;;22.20;75.00;;;;;;6102708;28;89084;-68
2022/03/31 12:49:16;;;;;;;9.70;8.35;;;22.20;74.90;;;;;;6099890;28;88218;-68
2022/03/31 12:52:22;;;;;;;11.07;8.23;;;22.20;74.80;;;;;;6103459;28;89081;-68
2022/03/31 12:55:31;;;;;;;9.98;8.30;;;22.20;74.70;;;;;;6106343;28;87995;-69
2022/03/31 12:58:37;;;;;;;14.15;8.60;;;22.20;74.50;;;;;;6097864;28;90038;-68
2022/03/31 13:01:39;;;;;;;12.45;8.63;;;22.20;74.50;;;;;;6104179;28;89129;-67
2022/03/31 13:04:43;;;;;;;11.73;8.57;;;22.20;74.40;;;;;;6098562;28;89137;-68
2022/03/31 13:07:47;;;;;;;10.98;8.90;;;22.20;74.40;;;;;;6100017;28;88978;-68
2022/03/31 13:10:49;;;;;;;11.13;8.48;;;22.20;74.20;;;;;;6101789;28;89284;-68
2022/03/31 13:13:51;;;;;;;11.98;9.00;;;22.20;74.20;;;;;;6112260;28;89115;-68
2022/03/31 13:16:53;;;;;;;10.68;8.90;;;22.20;74.10;;;;;;6104606;28;88907;-68
2022/03/31 13:19:55;;;;;;;11.27;8.98;;;22.10;73.90;;;;;;6100715;28;88293;-68
2022/03/31 13:22:59;;;;;;;10.70;9.60;;;22.20;74.00;;;;;;6090613;28;89108;-68
2022/03/31 13:26:01;;;;;;;12.15;9.20;;;22.20;73.80;;;;;;6112090;28;87871;-68
2022/03/31 13:29:05;;;;;;;11.52;9.32;;;22.10;73.70;;;;;;6110447;28;90015;-67
2022/03/31 13:32:08;;;;;;;10.77;9.50;;;22.20;73.70;;;;;;6111916;28;89272;-69
2022/03/31 13:35:11;;;;;;;12.50;9.80;;;22.20;73.50;;;;;;6110993;28;90105;-68
2022/03/31 13:38:15;;;;;;;10.23;9.23;;;22.20;73.50;;;;;;6088805;28;89487;-68
2022/03/31 13:41:17;;;;;;;12.27;9.80;;;22.20;73.30;;;;;;6092535;28;88239;-68
2022/03/31 13:44:19;;;;;;;10.73;9.43;;;22.20;73.30;;;;;;6098249;28;89265;-68
2022/03/31 13:47:21;;;;;;;11.88;10.10;;;22.20;73.30;;;;;;6095426;28;89072;-68
2022/03/31 13:50:23;;;;;;;11.73;10.40;;;22.20;73.20;;;;;;6111184;28;88527;-68
2022/03/31 13:53:44;;;;;;;12.07;9.85;;;22.20;73.10;;;;;;6108233;28;89180;-68
2022/03/31 13:56:48;;;;;;;11.32;9.85;;;22.20;73.00;;;;;;6110408;28;88524;-68
2022/03/31 14:03:10;;;;;;;11.32;10.00;;;22.20;72.80;;;;;;6090098;28;87321;-68
2022/03/31 14:06:16;;;;;;;11.20;10.02;;;22.20;72.70;;;;;;6102519;28;90051;-68
2022/03/31 14:09:19;;;;;;;11.75;10.55;;;22.20;72.60;;;;;;6097646;28;89088;-68
2022/03/31 14:12:22;;;;;;;11.20;10.05;;;22.30;72.50;;;;;;6106755;28;89031;-68
2022/03/31 14:15:24;;;;;;;10.95;9.73;;;22.20;72.50;;;;;;6090353;28;88020;-67
2022/03/31 14:18:26;;;;;;;11.50;10.40;;;22.20;72.50;;;;;;6103308;28;89142;-68
2022/03/31 14:21:28;;;;;;;12.13;10.48;;;22.20;72.30;;;;;;6109120;28;87323;-67
2022/03/31 14:24:32;;;;;;;12.35;10.20;;;22.20;72.20;;;;;;6107018;28;89038;-68
2022/03/31 14:27:34;;;;;;;10.75;9.70;;;22.30;72.20;;;;;;6087225;28;89254;-68
2022/03/31 14:30:36;;;;;;;10.73;9.48;;;22.20;72.20;;;;;;6107508;28;90168;-68
2022/03/31 14:33:39;;;;;;;11.45;10.35;;;22.20;72.10;;;;;;6109296;28;88048;-68
2022/03/31 14:36:42;;;;;;;11.30;10.20;;;22.20;72.00;;;;;;6109735;28;89079;-68
2022/03/31 14:39:46;;;;;;;10.75;9.75;;;22.30;72.00;;;;;;6109920;28;89451;-68
2022/03/31 14:42:49;;;;;;;10.95;9.80;;;22.20;71.80;;;;;;6095401;28;88900;-68
2022/03/31 14:45:51;;;;;;;10.90;9.55;;;22.30;71.80;;;;;;6109974;28;89589;-68
2022/03/31 14:48:54;;;;;;;11.25;10.05;;;22.30;71.70;;;;;;6103184;28;87941;-68
2022/03/31 14:51:56;;;;;;;11.07;9.98;;;22.30;71.60;;;;;;6108008;28;87305;-68
2022/03/31 14:54:59;;;;;;;11.43;10.43;;;22.30;71.70;;;;;;6099715;28;89109;-68
2022/03/31 14:58:02;;;;;;;10.73;9.63;;;22.30;71.60;;;;;;6106891;28;89401;-68
2022/03/31 15:01:05;;;;;;;10.35;9.35;;;22.20;71.60;;;;;;6108683;28;90051;-68
2022/03/31 15:04:07;;;;;;;10.80;9.75;;;22.30;71.70;;;;;;6100764;28;89105;-68
2022/03/31 15:07:09;;;;;;;10.55;9.52;;;22.20;71.50;;;;;;6097665;28;88777;-68
2022/03/31 15:17:06;;;;;;;10.38;9.32;;;22.20;71.30;;;;;;6054975;28;87527;-68
2022/03/31 15:20:09;;;;;;;11.30;9.80;;;22.20;71.30;;;;;;6048468;28;89113;-67
2022/03/31 15:23:11;;;;;;;10.25;9.25;;;22.20;71.30;;;;;;6087716;28;88385;-67
2022/03/31 15:26:15;;;;;;;10.13;9.13;;;22.20;71.10;;;;;;6104187;28;88012;-68
2022/03/31 15:29:17;;;;;;;10.20;9.20;;;22.20;71.10;;;;;;6101959;28;89098;-67
2022/03/31 15:32:19;;;;;;;10.43;9.43;;;22.30;71.10;;;;;;6106543;28;90091;-69
2022/03/31 15:35:21;;;;;;;10.23;9.23;;;22.20;70.90;;;;;;6093463;28;89093;-68
2022/03/31 15:38:23;;;;;;;9.52;8.63;;;22.20;70.90;;;;;;6110750;28;89002;-68
2022/03/31 15:41:28;;;;;;;10.43;9.35;;;22.30;70.80;;;;;;6108410;28;89061;-67
2022/03/31 15:44:30;;;;;;;9.77;8.85;;;22.20;70.80;;;;;;6108593;28;88703;-67
2022/03/31 15:47:33;;;;;;;10.00;9.10;;;22.30;70.80;;;;;;6110067;28;89078;-68
2022/03/31 15:50:36;;;;;;;10.30;9.30;;;22.30;70.70;;;;;;6107075;28;87659;-68
2022/03/31 15:53:38;;;;;;;9.50;8.60;;;22.30;70.60;;;;;;6110660;28;88685;-68
2022/03/31 15:56:45;;;;;;;10.25;9.10;;;22.30;70.60;;;;;;6108526;28;89072;-69